sensor_id;sensor_type;location;lat;lon;timestamp;temperature;humidity
8408;DHT22;4241;48.452;9.216;2023-04-15T00:00:35;5.40;99.90
8408;DHT22;4241;48.452;9.216;2023-04-15T00:03:02;5.40;99.90
8408;DHT22;4241;48.452;9.216;2023-04-15T00:05:30;5.30;99.90
8408;DHT22;4241;48.452;9.216;2023-04-15T00:07:58;5.10;99.90
8408;DHT22;4241;48.452;9.216;2023-04-15T00:10:26;5.10;99.90
8408;DHT22;4241;48.452;9.216;2023-04-15T00:12:52;5.10;99.90
8408;DHT22;4241;48.452;9.216;2023-04-15T00:15:19;4.90;99.90
8408;DHT22;4241;48.452;9.216;2023-04-15T00:17:49;5.00;99.90
8408;DHT22;4241;48.452;9.216;2023-04-15T00:20:16;5.10;99.90
8408;DHT22;4241;48.452;9.216;2023-04-15T00:22:43;5.10;99.90
8408;DHT22;4241;48.452;9.216;2023-04-15T00:25:12;5.10;99.90
8408;DHT22;4241;48.452;9.216;2023-04-15T00:27:39;5.20;99.90
8408;DHT22;4241;48.452;9.216;2023-04-15T00:30:07;5.00;99.90
8408;DHT22;4241;48.452;9.216;2023-04-15T00:32:34;5.00;99.90
8408;DHT22;4241;48.452;9.216;2023-04-15T00:35:01;5.00;99.90
8408;DHT22;4241;48.452;9.216;2023-04-15T00:37:28;5.00;99.90
8408;DHT22;4241;48.452;9.216;2023-04-15T00:39:55;5.10;99.90
8408;DHT22;4241;48.452;9.216;2023-04-15T00:42:24;5.00;99.90
8408;DHT22;4241;48.452;9.216;2023-04-15T00:44:51;5.00;99.90
8408;DHT22;4241;48.452;9.216;2023-04-15T00:47:18;4.60;99.90
8408;DHT22;4241;48.452;9.216;2023-04-15T00:49:45;5.10;99.90
8408;DHT22;4241;48.452;9.216;2023-04-15T00:52:12;5.00;99.90
8408;DHT22;4241;48.452;9.216;2023-04-15T00:54:40;5.00;99.90
8408;DHT22;4241;48.452;9.216;2023-04-15T00:57:07;5.00;99.90
8408;DHT22;4241;48.452;9.216;2023-04-15T00:59:35;5.00;99.90
8408;DHT22;4241;48.452;9.216;2023-04-15T01:02:02;5.10;99.90
8408;DHT22;4241;48.452;9.216;2023-04-15T01:04:29;5.10;99.90
8408;DHT22;4241;48.452;9.216;2023-04-15T01:06:57;5.10;99.90
8408;DHT22;4241;48.452;9.216;2023-04-15T01:09:23;5.10;99.90
8408;DHT22;4241;48.452;9.216;2023-04-15T01:11:50;5.10;99.90
8408;DHT22;4241;48.452;9.216;2023-04-15T01:14:18;5.10;99.90
8408;DHT22;4241;48.452;9.216;2023-04-15T01:16:46;5.10;99.90
8408;DHT22;4241;48.452;9.216;2023-04-15T01:19:14;5.10;99.90
8408;DHT22;4241;48.452;9.216;2023-04-15T01:21:42;5.10;99.90
8408;DHT22;4241;48.452;9.216;2023-04-15T01:24:10;5.10;99.90
8408;DHT22;4241;48.452;9.216;2023-04-15T01:26:39;4.90;99.90
8408;DHT22;4241;48.452;9.216;2023-04-15T01:29:06;4.90;99.90
8408;DHT22;4241;48.452;9.216;2023-04-15T01:31:33;4.70;99.90
8408;DHT22;4241;48.452;9.216;2023-04-15T01:34:00;4.50;99.90
8408;DHT22;4241;48.452;9.216;2023-04-15T01:36:26;4.40;99.90
8408;DHT22;4241;48.452;9.216;2023-04-15T01:38:54;4.40;99.90
8408;DHT22;4241;48.452;9.216;2023-04-15T01:41:23;4.40;99.90
8408;DHT22;4241;48.452;9.216;2023-04-15T01:43:52;4.40;99.90
8408;DHT22;4241;48.452;9.216;2023-04-15T01:46:19;4.40;99.90
8408;DHT22;4241;48.452;9.216;2023-04-15T01:48:46;4.40;99.90
8408;DHT22;4241;48.452;9.216;2023-04-15T01:51:13;4.50;99.90
8408;DHT22;4241;48.452;9.216;2023-04-15T01:53:39;4.50;99.90
8408;DHT22;4241;48.452;9.216;2023-04-15T01:56:06;4.50;99.90
8408;DHT22;4241;48.452;9.216;2023-04-15T01:58:33;4.50;99.90
8408;DHT22;4241;48.452;9.216;2023-04-15T02:01:01;4.50;99.90
8408;DHT22;4241;48.452;9.216;2023-04-15T02:03:29;4.50;99.90
8408;DHT22;4241;48.452;9.216;2023-04-15T02:05:56;4.50;99.90
8408;DHT22;4241;48.452;9.216;2023-04-15T02:08:23;4.50;99.90
8408;DHT22;4241;48.452;9.216;2023-04-15T02:10:50;4.40;99.90
8408;DHT22;4241;48.452;9.216;2023-04-15T02:13:17;4.40;99.90
8408;DHT22;4241;48.452;9.216;2023-04-15T02:15:46;4.30;99.90
8408;DHT22;4241;48.452;9.216;2023-04-15T02:18:15;4.30;99.90
8408;DHT22;4241;48.452;9.216;2023-04-15T02:20:42;4.20;99.90
8408;DHT22;4241;48.452;9.216;2023-04-15T02:23:10;4.20;99.90
8408;DHT22;4241;48.452;9.216;2023-04-15T02:25:36;4.20;99.90
8408;DHT22;4241;48.452;9.216;2023-04-15T02:28:13;4.20;99.90
8408;DHT22;4241;48.452;9.216;2023-04-15T02:30:39;4.10;99.90
8408;DHT22;4241;48.452;9.216;2023-04-15T02:33:06;3.90;99.90
8408;DHT22;4241;48.452;9.216;2023-04-15T02:35:35;3.90;99.90
8408;DHT22;4241;48.452;9.216;2023-04-15T02:38:03;3.90;99.90
8408;DHT22;4241;48.452;9.216;2023-04-15T02:40:30;3.90;99.90
8408;DHT22;4241;48.452;9.216;2023-04-15T02:42:57;3.90;99.90
8408;DHT22;4241;48.452;9.216;2023-04-15T02:45:25;3.80;99.90
8408;DHT22;4241;48.452;9.216;2023-04-15T02:47:52;3.90;99.90
8408;DHT22;4241;48.452;9.216;2023-04-15T02:50:19;3.80;99.90
8408;DHT22;4241;48.452;9.216;2023-04-15T02:52:49;3.80;99.90
8408;DHT22;4241;48.452;9.216;2023-04-15T02:55:16;3.80;99.90
8408;DHT22;4241;48.452;9.216;2023-04-15T02:57:43;3.80;99.90
8408;DHT22;4241;48.452;9.216;2023-04-15T03:00:11;3.80;99.90
8408;DHT22;4241;48.452;9.216;2023-04-15T03:02:39;3.80;99.90
8408;DHT22;4241;48.452;9.216;2023-04-15T03:05:10;3.80;99.90
8408;DHT22;4241;48.452;9.216;2023-04-15T03:07:37;3.80;99.90
8408;DHT22;4241;48.452;9.216;2023-04-15T03:10:07;3.90;99.90
8408;DHT22;4241;48.452;9.216;2023-04-15T03:12:34;3.90;99.90
8408;DHT22;4241;48.452;9.216;2023-04-15T03:15:00;3.90;99.90
8408;DHT22;4241;48.452;9.216;2023-04-15T03:17:27;3.90;99.90
8408;DHT22;4241;48.452;9.216;2023-04-15T03:19:54;3.90;99.90
8408;DHT22;4241;48.452;9.216;2023-04-15T03:22:21;3.90;99.90
8408;DHT22;4241;48.452;9.216;2023-04-15T03:24:47;4.90;99.90
8408;DHT22;4241;48.452;9.216;2023-04-15T03:27:16;3.90;99.90
8408;DHT22;4241;48.452;9.216;2023-04-15T03:29:43;3.90;99.90
8408;DHT22;4241;48.452;9.216;2023-04-15T03:32:09;3.90;99.90
8408;DHT22;4241;48.452;9.216;2023-04-15T03:34:37;3.90;99.90
8408;DHT22;4241;48.452;9.216;2023-04-15T03:37:04;3.90;99.90
8408;DHT22;4241;48.452;9.216;2023-04-15T03:39:31;3.80;99.90
8408;DHT22;4241;48.452;9.216;2023-04-15T03:41:58;4.00;99.90
8408;DHT22;4241;48.452;9.216;2023-04-15T03:44:27;4.00;99.90
8408;DHT22;4241;48.452;9.216;2023-04-15T03:46:54;4.00;99.90
8408;DHT22;4241;48.452;9.216;2023-04-15T03:49:21;2.70;99.90
8408;DHT22;4241;48.452;9.216;2023-04-15T03:51:49;3.80;99.90
8408;DHT22;4241;48.452;9.216;2023-04-15T03:54:16;3.70;99.90
8408;DHT22;4241;48.452;9.216;2023-04-15T03:56:42;3.60;99.90
8408;DHT22;4241;48.452;9.216;2023-04-15T03:59:09;3.60;99.90
8408;DHT22;4241;48.452;9.216;2023-04-15T04:01:37;3.60;99.90
8408;DHT22;4241;48.452;9.216;2023-04-15T04:04:04;3.60;99.90
8408;DHT22;4241;48.452;9.216;2023-04-15T04:06:31;3.60;99.90
8408;DHT22;4241;48.452;9.216;2023-04-15T04:08:57;3.60;99.90
8408;DHT22;4241;48.452;9.216;2023-04-15T04:11:26;3.60;99.90
8408;DHT22;4241;48.452;9.216;2023-04-15T04:13:53;3.60;99.90
8408;DHT22;4241;48.452;9.216;2023-04-15T04:16:20;3.60;99.90
8408;DHT22;4241;48.452;9.216;2023-04-15T04:18:48;3.40;99.90
8408;DHT22;4241;48.452;9.216;2023-04-15T04:21:15;3.20;99.90
8408;DHT22;4241;48.452;9.216;2023-04-15T04:23:42;3.10;99.90
8408;DHT22;4241;48.452;9.216;2023-04-15T04:26:08;3.20;99.90
8408;DHT22;4241;48.452;9.216;2023-04-15T04:28:35;3.20;99.90
8408;DHT22;4241;48.452;9.216;2023-04-15T04:31:04;3.20;99.90
8408;DHT22;4241;48.452;9.216;2023-04-15T04:33:31;3.30;99.90
8408;DHT22;4241;48.452;9.216;2023-04-15T04:35:59;3.30;99.90
8408;DHT22;4241;48.452;9.216;2023-04-15T04:38:26;3.30;99.90
8408;DHT22;4241;48.452;9.216;2023-04-15T04:40:53;3.30;99.90
8408;DHT22;4241;48.452;9.216;2023-04-15T04:43:19;3.30;99.90
8408;DHT22;4241;48.452;9.216;2023-04-15T04:45:46;3.40;99.90
8408;DHT22;4241;48.452;9.216;2023-04-15T04:48:13;3.30;99.90
8408;DHT22;4241;48.452;9.216;2023-04-15T04:50:41;3.30;99.90
8408;DHT22;4241;48.452;9.216;2023-04-15T04:53:10;3.30;99.90
8408;DHT22;4241;48.452;9.216;2023-04-15T04:55:37;3.20;99.90
8408;DHT22;4241;48.452;9.216;2023-04-15T04:58:04;3.20;99.90
8408;DHT22;4241;48.452;9.216;2023-04-15T05:00:31;3.20;99.90
8408;DHT22;4241;48.452;9.216;2023-04-15T05:02:58;3.20;99.90
8408;DHT22;4241;48.452;9.216;2023-04-15T05:05:25;3.20;99.90
8408;DHT22;4241;48.452;9.216;2023-04-15T05:07:52;3.20;99.90
8408;DHT22;4241;48.452;9.216;2023-04-15T05:10:20;3.30;99.90
8408;DHT22;4241;48.452;9.216;2023-04-15T05:12:46;3.20;99.90
8408;DHT22;4241;48.452;9.216;2023-04-15T05:15:13;3.30;99.90
8408;DHT22;4241;48.452;9.216;2023-04-15T05:17:40;3.40;99.90
8408;DHT22;4241;48.452;9.216;2023-04-15T05:20:08;3.40;99.90
8408;DHT22;4241;48.452;9.216;2023-04-15T05:22:35;3.40;99.90
8408;DHT22;4241;48.452;9.216;2023-04-15T05:25:02;3.50;99.90
8408;DHT22;4241;48.452;9.216;2023-04-15T05:27:30;3.50;99.90
8408;DHT22;4241;48.452;9.216;2023-04-15T05:29:57;3.80;99.90
8408;DHT22;4241;48.452;9.216;2023-04-15T05:32:24;3.60;99.90
8408;DHT22;4241;48.452;9.216;2023-04-15T05:34:51;3.60;99.90
8408;DHT22;4241;48.452;9.216;2023-04-15T05:37:18;3.70;99.90
8408;DHT22;4241;48.452;9.216;2023-04-15T05:39:46;3.60;99.90
8408;DHT22;4241;48.452;9.216;2023-04-15T05:42:14;3.60;99.90
8408;DHT22;4241;48.452;9.216;2023-04-15T05:44:42;3.50;99.90
8408;DHT22;4241;48.452;9.216;2023-04-15T05:47:09;3.40;99.90
8408;DHT22;4241;48.452;9.216;2023-04-15T05:49:36;3.40;99.90
8408;DHT22;4241;48.452;9.216;2023-04-15T05:52:03;3.40;99.90
8408;DHT22;4241;48.452;9.216;2023-04-15T05:54:30;3.30;99.90
8408;DHT22;4241;48.452;9.216;2023-04-15T05:56:57;3.30;99.90
8408;DHT22;4241;48.452;9.216;2023-04-15T05:59:24;3.50;99.90
8408;DHT22;4241;48.452;9.216;2023-04-15T06:01:52;3.50;99.90
8408;DHT22;4241;48.452;9.216;2023-04-15T06:04:19;3.60;99.90
8408;DHT22;4241;48.452;9.216;2023-04-15T06:06:47;3.70;99.90
8408;DHT22;4241;48.452;9.216;2023-04-15T06:09:13;3.80;99.90
8408;DHT22;4241;48.452;9.216;2023-04-15T06:11:41;3.90;99.90
8408;DHT22;4241;48.452;9.216;2023-04-15T06:14:08;3.90;99.90
8408;DHT22;4241;48.452;9.216;2023-04-15T06:16:34;3.90;99.90
8408;DHT22;4241;48.452;9.216;2023-04-15T06:19:03;4.00;99.90
8408;DHT22;4241;48.452;9.216;2023-04-15T06:21:30;4.10;99.90
8408;DHT22;4241;48.452;9.216;2023-04-15T06:23:58;4.20;99.90
8408;DHT22;4241;48.452;9.216;2023-04-15T06:26:25;4.50;99.90
8408;DHT22;4241;48.452;9.216;2023-04-15T06:28:52;4.40;99.90
8408;DHT22;4241;48.452;9.216;2023-04-15T06:31:19;4.40;99.90
8408;DHT22;4241;48.452;9.216;2023-04-15T06:33:46;4.50;99.90
8408;DHT22;4241;48.452;9.216;2023-04-15T06:36:14;4.60;99.90
8408;DHT22;4241;48.452;9.216;2023-04-15T06:38:41;4.60;99.90
8408;DHT22;4241;48.452;9.216;2023-04-15T06:41:08;4.70;99.90
8408;DHT22;4241;48.452;9.216;2023-04-15T06:43:35;4.80;99.90
8408;DHT22;4241;48.452;9.216;2023-04-15T06:46:02;4.90;99.90
8408;DHT22;4241;48.452;9.216;2023-04-15T06:48:28;5.00;99.90
8408;DHT22;4241;48.452;9.216;2023-04-15T06:50:55;5.20;99.90
8408;DHT22;4241;48.452;9.216;2023-04-15T06:53:24;5.40;99.90
8408;DHT22;4241;48.452;9.216;2023-04-15T06:55:52;5.50;99.90
8408;DHT22;4241;48.452;9.216;2023-04-15T06:58:19;5.60;99.90
8408;DHT22;4241;48.452;9.216;2023-04-15T07:00:46;5.70;99.90
8408;DHT22;4241;48.452;9.216;2023-04-15T07:03:13;5.90;99.90
8408;DHT22;4241;48.452;9.216;2023-04-15T07:05:40;6.10;99.90
8408;DHT22;4241;48.452;9.216;2023-04-15T07:08:07;6.20;99.90
8408;DHT22;4241;48.452;9.216;2023-04-15T07:10:36;6.30;99.90
8408;DHT22;4241;48.452;9.216;2023-04-15T07:13:03;6.40;99.90
8408;DHT22;4241;48.452;9.216;2023-04-15T07:15:30;6.60;99.90
8408;DHT22;4241;48.452;9.216;2023-04-15T07:17:56;6.80;99.90
8408;DHT22;4241;48.452;9.216;2023-04-15T07:20:23;7.00;99.90
8408;DHT22;4241;48.452;9.216;2023-04-15T07:22:50;7.10;99.90
8408;DHT22;4241;48.452;9.216;2023-04-15T07:25:17;7.20;99.90
8408;DHT22;4241;48.452;9.216;2023-04-15T07:27:45;7.50;99.90
8408;DHT22;4241;48.452;9.216;2023-04-15T07:30:12;7.60;99.90
8408;DHT22;4241;48.452;9.216;2023-04-15T07:32:41;7.60;99.90
8408;DHT22;4241;48.452;9.216;2023-04-15T07:35:08;7.80;99.90
8408;DHT22;4241;48.452;9.216;2023-04-15T07:37:35;8.00;99.90
8408;DHT22;4241;48.452;9.216;2023-04-15T07:40:02;8.20;99.90
8408;DHT22;4241;48.452;9.216;2023-04-15T07:42:31;8.40;99.90
8408;DHT22;4241;48.452;9.216;2023-04-15T07:44:59;8.60;99.90
8408;DHT22;4241;48.452;9.216;2023-04-15T07:47:26;8.80;99.90
8408;DHT22;4241;48.452;9.216;2023-04-15T07:49:53;9.00;99.90
8408;DHT22;4241;48.452;9.216;2023-04-15T07:52:20;9.10;99.90
8408;DHT22;4241;48.452;9.216;2023-04-15T07:54:47;9.20;99.90
8408;DHT22;4241;48.452;9.216;2023-04-15T07:57:13;9.40;99.90
8408;DHT22;4241;48.452;9.216;2023-04-15T07:59:41;9.60;99.90
8408;DHT22;4241;48.452;9.216;2023-04-15T08:02:10;9.80;99.90
8408;DHT22;4241;48.452;9.216;2023-04-15T08:04:37;9.90;99.90
8408;DHT22;4241;48.452;9.216;2023-04-15T08:07:04;9.80;99.90
8408;DHT22;4241;48.452;9.216;2023-04-15T08:09:30;10.10;99.90
8408;DHT22;4241;48.452;9.216;2023-04-15T08:11:57;10.20;99.90
8408;DHT22;4241;48.452;9.216;2023-04-15T08:14:24;10.40;99.90
8408;DHT22;4241;48.452;9.216;2023-04-15T08:16:51;10.70;99.90
8408;DHT22;4241;48.452;9.216;2023-04-15T08:19:19;10.80;99.90
8408;DHT22;4241;48.452;9.216;2023-04-15T08:21:46;10.90;99.90
8408;DHT22;4241;48.452;9.216;2023-04-15T08:24:13;11.10;99.90
8408;DHT22;4241;48.452;9.216;2023-04-15T08:26:40;11.30;99.90
8408;DHT22;4241;48.452;9.216;2023-04-15T08:29:06;11.30;99.90
8408;DHT22;4241;48.452;9.216;2023-04-15T08:31:33;11.50;99.90
8408;DHT22;4241;48.452;9.216;2023-04-15T08:34:00;11.70;99.90
8408;DHT22;4241;48.452;9.216;2023-04-15T08:36:28;11.80;99.90
8408;DHT22;4241;48.452;9.216;2023-04-15T08:38:56;11.90;99.90
8408;DHT22;4241;48.452;9.216;2023-04-15T08:41:24;12.20;99.90
8408;DHT22;4241;48.452;9.216;2023-04-15T08:43:53;12.20;99.90
8408;DHT22;4241;48.452;9.216;2023-04-15T08:46:22;12.50;99.90
8408;DHT22;4241;48.452;9.216;2023-04-15T08:48:49;12.50;99.10
8408;DHT22;4241;48.452;9.216;2023-04-15T08:51:17;12.60;99.90
8408;DHT22;4241;48.452;9.216;2023-04-15T08:53:45;12.60;98.10
8408;DHT22;4241;48.452;9.216;2023-04-15T08:56:14;12.60;99.90
8408;DHT22;4241;48.452;9.216;2023-04-15T08:58:42;12.70;99.30
8408;DHT22;4241;48.452;9.216;2023-04-15T09:01:09;12.80;97.50
8408;DHT22;4241;48.452;9.216;2023-04-15T09:03:37;13.00;98.70
8408;DHT22;4241;48.452;9.216;2023-04-15T09:06:04;13.00;98.60
8408;DHT22;4241;48.452;9.216;2023-04-15T09:08:31;12.90;97.80
8408;DHT22;4241;48.452;9.216;2023-04-15T09:11:00;13.00;97.30
8408;DHT22;4241;48.452;9.216;2023-04-15T09:13:27;13.00;98.60
8408;DHT22;4241;48.452;9.216;2023-04-15T09:15:54;13.10;97.10
8408;DHT22;4241;48.452;9.216;2023-04-15T09:18:28;13.10;95.70
8408;DHT22;4241;48.452;9.216;2023-04-15T09:20:55;13.10;98.20
8408;DHT22;4241;48.452;9.216;2023-04-15T09:23:22;13.20;98.00
8408;DHT22;4241;48.452;9.216;2023-04-15T09:25:49;13.20;96.80
8408;DHT22;4241;48.452;9.216;2023-04-15T09:28:24;13.40;99.30
8408;DHT22;4241;48.452;9.216;2023-04-15T09:30:54;13.30;96.30
8408;DHT22;4241;48.452;9.216;2023-04-15T09:33:22;13.30;96.10
8408;DHT22;4241;48.452;9.216;2023-04-15T09:36:00;13.40;90.00
8408;DHT22;4241;48.452;9.216;2023-04-15T09:38:28;13.40;91.40
8408;DHT22;4241;48.452;9.216;2023-04-15T09:40:55;13.20;91.70
8408;DHT22;4241;48.452;9.216;2023-04-15T09:43:36;13.00;89.10
8408;DHT22;4241;48.452;9.216;2023-04-15T09:46:03;13.00;93.90
8408;DHT22;4241;48.452;9.216;2023-04-15T09:48:30;13.00;91.30
8408;DHT22;4241;48.452;9.216;2023-04-15T09:50:57;13.10;92.10
8408;DHT22;4241;48.452;9.216;2023-04-15T09:53:25;13.10;89.60
8408;DHT22;4241;48.452;9.216;2023-04-15T09:55:54;13.10;90.80
8408;DHT22;4241;48.452;9.216;2023-04-15T09:58:24;13.20;91.70
8408;DHT22;4241;48.452;9.216;2023-04-15T10:00:52;13.20;81.50
8408;DHT22;4241;48.452;9.216;2023-04-15T10:03:21;13.10;81.10
8408;DHT22;4241;48.452;9.216;2023-04-15T10:05:49;13.10;86.50
8408;DHT22;4241;48.452;9.216;2023-04-15T10:08:18;13.10;91.00
8408;DHT22;4241;48.452;9.216;2023-04-15T10:10:46;13.30;90.00
8408;DHT22;4241;48.452;9.216;2023-04-15T10:13:13;13.30;88.00
8408;DHT22;4241;48.452;9.216;2023-04-15T10:15:44;13.30;80.40
8408;DHT22;4241;48.452;9.216;2023-04-15T10:18:15;13.40;81.00
8408;DHT22;4241;48.452;9.216;2023-04-15T10:20:43;13.40;79.50
8408;DHT22;4241;48.452;9.216;2023-04-15T10:23:11;13.30;80.30
8408;DHT22;4241;48.452;9.216;2023-04-15T10:25:38;13.30;84.10
8408;DHT22;4241;48.452;9.216;2023-04-15T10:28:06;13.40;83.90
8408;DHT22;4241;48.452;9.216;2023-04-15T10:30:33;13.60;90.70
8408;DHT22;4241;48.452;9.216;2023-04-15T10:33:02;13.50;80.50
8408;DHT22;4241;48.452;9.216;2023-04-15T10:35:30;13.50;84.70
8408;DHT22;4241;48.452;9.216;2023-04-15T10:37:58;13.70;84.70
8408;DHT22;4241;48.452;9.216;2023-04-15T10:40:27;13.80;87.70
8408;DHT22;4241;48.452;9.216;2023-04-15T10:42:57;13.90;81.50
8408;DHT22;4241;48.452;9.216;2023-04-15T10:45:30;13.90;81.70
8408;DHT22;4241;48.452;9.216;2023-04-15T10:48:02;14.10;82.20
8408;DHT22;4241;48.452;9.216;2023-04-15T10:50:30;14.40;87.70
8408;DHT22;4241;48.452;9.216;2023-04-15T10:52:57;14.40;82.20
8408;DHT22;4241;48.452;9.216;2023-04-15T10:55:25;14.60;82.70
8408;DHT22;4241;48.452;9.216;2023-04-15T10:57:53;14.70;81.50
8408;DHT22;4241;48.452;9.216;2023-04-15T11:00:24;14.80;80.00
8408;DHT22;4241;48.452;9.216;2023-04-15T11:02:53;14.60;77.50
8408;DHT22;4241;48.452;9.216;2023-04-15T11:05:48;14.50;77.40
8408;DHT22;4241;48.452;9.216;2023-04-15T11:08:16;14.10;75.40
8408;DHT22;4241;48.452;9.216;2023-04-15T11:10:52;13.90;82.50
8408;DHT22;4241;48.452;9.216;2023-04-15T11:13:28;13.90;83.10
8408;DHT22;4241;48.452;9.216;2023-04-15T11:15:57;14.00;82.90
8408;DHT22;4241;48.452;9.216;2023-04-15T11:18:30;14.10;80.00
8408;DHT22;4241;48.452;9.216;2023-04-15T11:21:01;14.10;82.70
8408;DHT22;4241;48.452;9.216;2023-04-15T11:23:33;14.20;82.70
8408;DHT22;4241;48.452;9.216;2023-04-15T11:26:01;14.20;81.00
8408;DHT22;4241;48.452;9.216;2023-04-15T11:28:31;14.00;75.70
8408;DHT22;4241;48.452;9.216;2023-04-15T11:31:05;14.00;81.10
8408;DHT22;4241;48.452;9.216;2023-04-15T11:33:33;14.00;77.70
8408;DHT22;4241;48.452;9.216;2023-04-15T11:36:01;13.70;78.20
8408;DHT22;4241;48.452;9.216;2023-04-15T11:38:28;13.80;79.20
8408;DHT22;4241;48.452;9.216;2023-04-15T11:40:57;13.70;84.20
8408;DHT22;4241;48.452;9.216;2023-04-15T11:43:24;13.90;82.00
8408;DHT22;4241;48.452;9.216;2023-04-15T11:45:52;14.00;83.00
8408;DHT22;4241;48.452;9.216;2023-04-15T11:48:21;14.40;83.20
8408;DHT22;4241;48.452;9.216;2023-04-15T11:50:53;14.40;75.20
8408;DHT22;4241;48.452;9.216;2023-04-15T11:53:22;14.30;76.30
8408;DHT22;4241;48.452;9.216;2023-04-15T11:55:50;14.50;77.70
8408;DHT22;4241;48.452;9.216;2023-04-15T11:58:19;14.80;78.10
8408;DHT22;4241;48.452;9.216;2023-04-15T12:00:48;14.80;75.00
8408;DHT22;4241;48.452;9.216;2023-04-15T12:03:23;14.70;76.00
8408;DHT22;4241;48.452;9.216;2023-04-15T12:06:11;14.70;77.80
8408;DHT22;4241;48.452;9.216;2023-04-15T12:09:01;14.70;76.30
8408;DHT22;4241;48.452;9.216;2023-04-15T12:11:31;14.60;75.60
8408;DHT22;4241;48.452;9.216;2023-04-15T12:14:02;14.30;72.60
8408;DHT22;4241;48.452;9.216;2023-04-15T12:16:30;14.30;77.00
8408;DHT22;4241;48.452;9.216;2023-04-15T12:18:58;14.20;73.80
8408;DHT22;4241;48.452;9.216;2023-04-15T12:21:26;14.20;73.40
8408;DHT22;4241;48.452;9.216;2023-04-15T12:23:55;14.00;71.00
8408;DHT22;4241;48.452;9.216;2023-04-15T12:26:27;13.90;70.60
8408;DHT22;4241;48.452;9.216;2023-04-15T12:28:55;13.90;72.40
8408;DHT22;4241;48.452;9.216;2023-04-15T12:31:22;13.90;76.10
8408;DHT22;4241;48.452;9.216;2023-04-15T12:33:49;13.70;72.30
8408;DHT22;4241;48.452;9.216;2023-04-15T12:36:16;13.50;75.40
8408;DHT22;4241;48.452;9.216;2023-04-15T12:38:43;13.80;82.20
8408;DHT22;4241;48.452;9.216;2023-04-15T12:41:10;13.70;83.70
8408;DHT22;4241;48.452;9.216;2023-04-15T12:43:38;13.70;78.20
8408;DHT22;4241;48.452;9.216;2023-04-15T12:46:05;13.80;73.10
8408;DHT22;4241;48.452;9.216;2023-04-15T12:48:32;14.10;80.00
8408;DHT22;4241;48.452;9.216;2023-04-15T12:50:59;14.30;78.10
8408;DHT22;4241;48.452;9.216;2023-04-15T12:53:26;14.60;79.70
8408;DHT22;4241;48.452;9.216;2023-04-15T12:55:53;14.70;78.00
8408;DHT22;4241;48.452;9.216;2023-04-15T12:58:20;14.90;77.00
8408;DHT22;4241;48.452;9.216;2023-04-15T13:00:49;14.90;80.30
8408;DHT22;4241;48.452;9.216;2023-04-15T13:03:16;15.20;76.20
8408;DHT22;4241;48.452;9.216;2023-04-15T13:05:43;15.50;74.20
8408;DHT22;4241;48.452;9.216;2023-04-15T13:08:10;15.50;74.80
8408;DHT22;4241;48.452;9.216;2023-04-15T13:10:36;15.30;71.40
8408;DHT22;4241;48.452;9.216;2023-04-15T13:13:04;14.80;69.50
8408;DHT22;4241;48.452;9.216;2023-04-15T13:15:31;14.90;77.40
8408;DHT22;4241;48.452;9.216;2023-04-15T13:17:59;15.00;76.40
8408;DHT22;4241;48.452;9.216;2023-04-15T13:20:27;14.80;74.70
8408;DHT22;4241;48.452;9.216;2023-04-15T13:22:53;14.50;68.10
8408;DHT22;4241;48.452;9.216;2023-04-15T13:25:20;14.50;67.60
8408;DHT22;4241;48.452;9.216;2023-04-15T13:27:47;14.70;69.00
8408;DHT22;4241;48.452;9.216;2023-04-15T13:30:14;14.30;71.10
8408;DHT22;4241;48.452;9.216;2023-04-15T13:32:41;14.30;74.70
8408;DHT22;4241;48.452;9.216;2023-04-15T13:35:09;13.90;82.50
8408;DHT22;4241;48.452;9.216;2023-04-15T13:37:36;13.60;85.80
8408;DHT22;4241;48.452;9.216;2023-04-15T13:40:04;13.10;89.40
8408;DHT22;4241;48.452;9.216;2023-04-15T13:42:32;13.40;91.40
8408;DHT22;4241;48.452;9.216;2023-04-15T13:44:59;12.50;93.60
8408;DHT22;4241;48.452;9.216;2023-04-15T13:47:26;12.10;96.00
8408;DHT22;4241;48.452;9.216;2023-04-15T13:49:53;12.00;97.40
8408;DHT22;4241;48.452;9.216;2023-04-15T13:52:22;11.80;98.30
8408;DHT22;4241;48.452;9.216;2023-04-15T13:54:49;11.90;99.90
8408;DHT22;4241;48.452;9.216;2023-04-15T13:57:16;11.70;99.50
8408;DHT22;4241;48.452;9.216;2023-04-15T13:59:43;11.70;99.90
8408;DHT22;4241;48.452;9.216;2023-04-15T14:02:10;11.70;99.90
8408;DHT22;4241;48.452;9.216;2023-04-15T14:04:37;11.80;99.90
8408;DHT22;4241;48.452;9.216;2023-04-15T14:07:04;11.90;99.90
8408;DHT22;4241;48.452;9.216;2023-04-15T14:09:32;11.90;99.90
8408;DHT22;4241;48.452;9.216;2023-04-15T14:11:59;12.30;99.90
8408;DHT22;4241;48.452;9.216;2023-04-15T14:14:27;11.90;99.90
8408;DHT22;4241;48.452;9.216;2023-04-15T14:16:54;12.10;99.90
8408;DHT22;4241;48.452;9.216;2023-04-15T14:19:22;12.20;99.90
8408;DHT22;4241;48.452;9.216;2023-04-15T14:21:49;12.30;99.90
8408;DHT22;4241;48.452;9.216;2023-04-15T14:24:16;12.40;99.90
8408;DHT22;4241;48.452;9.216;2023-04-15T14:26:44;12.40;96.80
8408;DHT22;4241;48.452;9.216;2023-04-15T14:29:11;12.40;97.20
8408;DHT22;4241;48.452;9.216;2023-04-15T14:31:38;12.30;97.50
8408;DHT22;4241;48.452;9.216;2023-04-15T14:34:04;12.30;97.70
8408;DHT22;4241;48.452;9.216;2023-04-15T14:36:31;12.10;95.50
8408;DHT22;4241;48.452;9.216;2023-04-15T14:38:58;12.00;94.50
8408;DHT22;4241;48.452;9.216;2023-04-15T14:41:25;12.00;97.10
8408;DHT22;4241;48.452;9.216;2023-04-15T14:43:53;11.80;95.10
8408;DHT22;4241;48.452;9.216;2023-04-15T14:46:21;11.80;93.00
8408;DHT22;4241;48.452;9.216;2023-04-15T14:48:48;11.70;93.00
8408;DHT22;4241;48.452;9.216;2023-04-15T14:51:15;11.40;93.00
8408;DHT22;4241;48.452;9.216;2023-04-15T14:53:42;11.50;91.70
8408;DHT22;4241;48.452;9.216;2023-04-15T14:56:09;11.40;95.40
8408;DHT22;4241;48.452;9.216;2023-04-15T14:58:36;11.20;92.90
8408;DHT22;4241;48.452;9.216;2023-04-15T15:01:04;11.30;94.10
8408;DHT22;4241;48.452;9.216;2023-04-15T15:03:31;11.40;93.40
8408;DHT22;4241;48.452;9.216;2023-04-15T15:05:59;11.40;93.50
8408;DHT22;4241;48.452;9.216;2023-04-15T15:08:25;11.50;92.50
8408;DHT22;4241;48.452;9.216;2023-04-15T15:10:52;11.40;91.80
8408;DHT22;4241;48.452;9.216;2023-04-15T15:13:19;11.50;90.50
8408;DHT22;4241;48.452;9.216;2023-04-15T15:15:46;11.40;93.00
8408;DHT22;4241;48.452;9.216;2023-04-15T15:18:16;11.30;90.30
8408;DHT22;4241;48.452;9.216;2023-04-15T15:20:43;11.30;89.70
8408;DHT22;4241;48.452;9.216;2023-04-15T15:23:10;11.30;82.20
8408;DHT22;4241;48.452;9.216;2023-04-15T15:25:37;11.30;88.80
8408;DHT22;4241;48.452;9.216;2023-04-15T15:28:04;11.40;91.30
8408;DHT22;4241;48.452;9.216;2023-04-15T15:30:31;11.40;90.60
8408;DHT22;4241;48.452;9.216;2023-04-15T15:32:58;11.30;85.30
8408;DHT22;4241;48.452;9.216;2023-04-15T15:35:26;11.20;81.10
8408;DHT22;4241;48.452;9.216;2023-04-15T15:37:53;11.10;77.50
8408;DHT22;4241;48.452;9.216;2023-04-15T15:40:20;11.10;75.00
8408;DHT22;4241;48.452;9.216;2023-04-15T15:42:47;11.10;74.30
8408;DHT22;4241;48.452;9.216;2023-04-15T15:45:15;11.20;75.90
8408;DHT22;4241;48.452;9.216;2023-04-15T15:47:42;11.00;74.10
8408;DHT22;4241;48.452;9.216;2023-04-15T15:50:09;11.00;74.60
8408;DHT22;4241;48.452;9.216;2023-04-15T15:52:37;11.00;77.40
8408;DHT22;4241;48.452;9.216;2023-04-15T15:55:05;10.60;81.50
8408;DHT22;4241;48.452;9.216;2023-04-15T15:57:32;10.70;80.20
8408;DHT22;4241;48.452;9.216;2023-04-15T15:59:59;10.80;82.00
8408;DHT22;4241;48.452;9.216;2023-04-15T16:02:25;10.70;82.90
8408;DHT22;4241;48.452;9.216;2023-04-15T16:04:52;10.70;83.60
8408;DHT22;4241;48.452;9.216;2023-04-15T16:07:19;10.70;85.00
8408;DHT22;4241;48.452;9.216;2023-04-15T16:09:47;10.70;86.50
8408;DHT22;4241;48.452;9.216;2023-04-15T16:12:14;10.70;88.50